sensor_id;sensor_type;location;lat;lon;timestamp;P1;durP1;ratioP1;P2;durP2;ratioP2
37559;SDS011;23398;50.928;7.084;2024-02-16T00:00:16;1.88;;;1.20;;
37559;SDS011;23398;50.928;7.084;2024-02-16T00:02:42;3.08;;;1.60;;
37559;SDS011;23398;50.928;7.084;2024-02-16T00:05:08;2.30;;;1.30;;
37559;SDS011;23398;50.928;7.084;2024-02-16T00:07:36;1.92;;;1.20;;
37559;SDS011;23398;50.928;7.084;2024-02-16T00:10:03;2.13;;;1.30;;
37559;SDS011;23398;50.928;7.084;2024-02-16T00:12:30;3.55;;;1.45;;
37559;SDS011;23398;50.928;7.084;2024-02-16T00:14:57;1.88;;;1.30;;
37559;SDS011;23398;50.928;7.084;2024-02-16T00:17:23;2.33;;;1.40;;
37559;SDS011;23398;50.928;7.084;2024-02-16T00:19:52;2.22;;;1.38;;
37559;SDS011;23398;50.928;7.084;2024-02-16T00:22:18;1.45;;;1.17;;
37559;SDS011;23398;50.928;7.084;2024-02-16T00:24:43;2.42;;;1.40;;
37559;SDS011;23398;50.928;7.084;2024-02-16T00:27:09;2.35;;;1.30;;
37559;SDS011;23398;50.928;7.084;2024-02-16T00:29:35;2.45;;;1.42;;
37559;SDS011;23398;50.928;7.084;2024-02-16T00:32:03;2.20;;;1.30;;
37559;SDS011;23398;50.928;7.084;2024-02-16T00:34:31;1.42;;;1.25;;
37559;SDS011;23398;50.928;7.084;2024-02-16T00:36:56;2.13;;;1.20;;
37559;SDS011;23398;50.928;7.084;2024-02-16T00:39:22;2.20;;;1.35;;
37559;SDS011;23398;50.928;7.084;2024-02-16T00:41:48;1.83;;;1.20;;
37559;SDS011;23398;50.928;7.084;2024-02-16T00:44:13;2.75;;;1.40;;
37559;SDS011;23398;50.928;7.084;2024-02-16T00:46:39;2.53;;;1.30;;
37559;SDS011;23398;50.928;7.084;2024-02-16T00:49:05;2.25;;;1.17;;
37559;SDS011;23398;50.928;7.084;2024-02-16T00:51:32;1.65;;;1.15;;
37559;SDS011;23398;50.928;7.084;2024-02-16T00:53:57;1.90;;;1.30;;
37559;SDS011;23398;50.928;7.084;2024-02-16T00:56:23;1.85;;;1.35;;
37559;SDS011;23398;50.928;7.084;2024-02-16T00:58:48;1.55;;;1.10;;
37559;SDS011;23398;50.928;7.084;2024-02-16T01:01:14;1.85;;;1.15;;
37559;SDS011;23398;50.928;7.084;2024-02-16T01:03:40;1.85;;;1.10;;
37559;SDS011;23398;50.928;7.084;2024-02-16T01:06:05;2.40;;;1.30;;
37559;SDS011;23398;50.928;7.084;2024-02-16T01:08:31;1.65;;;1.20;;
37559;SDS011;23398;50.928;7.084;2024-02-16T01:10:57;2.55;;;1.48;;
37559;SDS011;23398;50.928;7.084;2024-02-16T01:13:23;2.75;;;1.20;;
37559;SDS011;23398;50.928;7.084;2024-02-16T01:15:49;2.50;;;1.17;;
37559;SDS011;23398;50.928;7.084;2024-02-16T01:18:15;2.35;;;1.30;;
37559;SDS011;23398;50.928;7.084;2024-02-16T01:20:40;1.58;;;1.30;;
37559;SDS011;23398;50.928;7.084;2024-02-16T01:23:06;2.28;;;1.42;;
37559;SDS011;23398;50.928;7.084;2024-02-16T01:25:31;2.38;;;1.27;;
37559;SDS011;23398;50.928;7.084;2024-02-16T01:27:57;2.20;;;1.30;;
37559;SDS011;23398;50.928;7.084;2024-02-16T01:30:23;1.60;;;1.20;;
37559;SDS011;23398;50.928;7.084;2024-02-16T01:32:49;2.65;;;1.33;;
37559;SDS011;23398;50.928;7.084;2024-02-16T01:35:15;2.17;;;1.40;;
37559;SDS011;23398;50.928;7.084;2024-02-16T01:37:41;1.70;;;1.33;;
37559;SDS011;23398;50.928;7.084;2024-02-16T01:40:07;2.13;;;1.30;;
37559;SDS011;23398;50.928;7.084;2024-02-16T01:42:38;1.90;;;1.40;;
37559;SDS011;23398;50.928;7.084;2024-02-16T01:45:08;1.60;;;1.30;;
37559;SDS011;23398;50.928;7.084;2024-02-16T01:47:35;2.70;;;1.50;;
37559;SDS011;23398;50.928;7.084;2024-02-16T01:50:02;2.08;;;1.15;;
37559;SDS011;23398;50.928;7.084;2024-02-16T01:52:28;1.40;;;1.20;;
37559;SDS011;23398;50.928;7.084;2024-02-16T01:54:56;1.50;;;1.10;;
37559;SDS011;23398;50.928;7.084;2024-02-16T01:57:23;2.33;;;1.48;;
37559;SDS011;23398;50.928;7.084;2024-02-16T01:59:49;2.85;;;1.20;;
37559;SDS011;23398;50.928;7.084;2024-02-16T02:02:15;1.85;;;1.40;;
37559;SDS011;23398;50.928;7.084;2024-02-16T02:04:40;1.90;;;1.30;;
37559;SDS011;23398;50.928;7.084;2024-02-16T02:07:13;1.83;;;1.40;;
37559;SDS011;23398;50.928;7.084;2024-02-16T02:09:39;2.97;;;1.27;;
37559;SDS011;23398;50.928;7.084;2024-02-16T02:12:05;3.28;;;1.35;;
37559;SDS011;23398;50.928;7.084;2024-02-16T02:14:31;2.25;;;1.27;;
37559;SDS011;23398;50.928;7.084;2024-02-16T02:16:56;3.60;;;1.35;;
37559;SDS011;23398;50.928;7.084;2024-02-16T02:19:22;2.33;;;1.45;;
37559;SDS011;23398;50.928;7.084;2024-02-16T02:21:47;3.38;;;1.40;;
37559;SDS011;23398;50.928;7.084;2024-02-16T02:24:13;2.30;;;1.20;;
37559;SDS011;23398;50.928;7.084;2024-02-16T02:26:39;3.65;;;1.48;;
37559;SDS011;23398;50.928;7.084;2024-02-16T02:29:04;2.53;;;1.35;;
37559;SDS011;23398;50.928;7.084;2024-02-16T02:31:30;2.05;;;1.13;;
37559;SDS011;23398;50.928;7.084;2024-02-16T02:33:56;2.50;;;1.40;;
37559;SDS011;23398;50.928;7.084;2024-02-16T02:36:21;2.65;;;1.30;;
37559;SDS011;23398;50.928;7.084;2024-02-16T02:38:47;1.60;;;1.20;;
37559;SDS011;23398;50.928;7.084;2024-02-16T02:41:13;2.30;;;1.58;;
37559;SDS011;23398;50.928;7.084;2024-02-16T02:43:41;1.60;;;1.30;;
37559;SDS011;23398;50.928;7.084;2024-02-16T02:46:07;1.83;;;1.35;;
37559;SDS011;23398;50.928;7.084;2024-02-16T02:48:32;2.17;;;1.45;;
37559;SDS011;23398;50.928;7.084;2024-02-16T02:50:58;1.80;;;1.30;;
37559;SDS011;23398;50.928;7.084;2024-02-16T02:53:26;1.40;;;1.20;;
37559;SDS011;23398;50.928;7.084;2024-02-16T02:55:53;4.30;;;1.58;;
37559;SDS011;23398;50.928;7.084;2024-02-16T02:58:18;1.40;;;1.20;;
37559;SDS011;23398;50.928;7.084;2024-02-16T03:00:44;1.65;;;1.20;;
37559;SDS011;23398;50.928;7.084;2024-02-16T03:03:09;2.25;;;1.40;;
37559;SDS011;23398;50.928;7.084;2024-02-16T03:05:35;2.10;;;1.30;;
37559;SDS011;23398;50.928;7.084;2024-02-16T03:08:01;2.22;;;1.23;;
37559;SDS011;23398;50.928;7.084;2024-02-16T03:10:27;2.10;;;1.20;;
37559;SDS011;23398;50.928;7.084;2024-02-16T03:12:59;1.73;;;1.30;;
37559;SDS011;23398;50.928;7.084;2024-02-16T03:15:25;2.58;;;1.20;;
37559;SDS011;23398;50.928;7.084;2024-02-16T03:17:50;1.50;;;1.15;;
37559;SDS011;23398;50.928;7.084;2024-02-16T03:20:16;1.92;;;1.30;;
37559;SDS011;23398;50.928;7.084;2024-02-16T03:22:42;2.67;;;1.30;;
37559;SDS011;23398;50.928;7.084;2024-02-16T03:25:07;1.40;;;1.10;;
37559;SDS011;23398;50.928;7.084;2024-02-16T03:27:33;4.05;;;1.38;;
37559;SDS011;23398;50.928;7.084;2024-02-16T03:29:59;3.85;;;1.52;;
37559;SDS011;23398;50.928;7.084;2024-02-16T03:32:26;1.63;;;1.27;;
37559;SDS011;23398;50.928;7.084;2024-02-16T03:34:52;1.48;;;1.20;;
37559;SDS011;23398;50.928;7.084;2024-02-16T03:37:18;2.25;;;1.30;;
37559;SDS011;23398;50.928;7.084;2024-02-16T03:39:43;2.17;;;1.30;;
37559;SDS011;23398;50.928;7.084;2024-02-16T03:42:09;2.20;;;1.20;;
37559;SDS011;23398;50.928;7.084;2024-02-16T03:44:34;2.15;;;1.30;;
37559;SDS011;23398;50.928;7.084;2024-02-16T03:47:00;1.75;;;1.25;;
37559;SDS011;23398;50.928;7.084;2024-02-16T03:49:26;1.40;;;1.20;;
37559;SDS011;23398;50.928;7.084;2024-02-16T03:51:54;2.03;;;1.30;;
37559;SDS011;23398;50.928;7.084;2024-02-16T03:54:20;1.50;;;1.20;;
37559;SDS011;23398;50.928;7.084;2024-02-16T03:56:45;3.42;;;1.50;;
37559;SDS011;23398;50.928;7.084;2024-02-16T03:59:11;3.10;;;1.17;;
37559;SDS011;23398;50.928;7.084;2024-02-16T04:01:37;1.88;;;1.20;;
37559;SDS011;23398;50.928;7.084;2024-02-16T04:04:02;1.50;;;1.17;;
37559;SDS011;23398;50.928;7.084;2024-02-16T04:06:28;1.63;;;1.10;;
37559;SDS011;23398;50.928;7.084;2024-02-16T04:08:54;2.50;;;1.30;;
37559;SDS011;23398;50.928;7.084;2024-02-16T04:11:21;1.58;;;1.30;;
37559;SDS011;23398;50.928;7.084;2024-02-16T04:13:46;1.52;;;1.20;;
37559;SDS011;23398;50.928;7.084;2024-02-16T04:16:13;2.17;;;1.30;;
37559;SDS011;23398;50.928;7.084;2024-02-16T04:18:38;1.70;;;1.40;;
37559;SDS011;23398;50.928;7.084;2024-02-16T04:21:04;3.08;;;1.55;;
37559;SDS011;23398;50.928;7.084;2024-02-16T04:23:30;1.73;;;1.35;;
37559;SDS011;23398;50.928;7.084;2024-02-16T04:25:55;2.63;;;1.30;;
37559;SDS011;23398;50.928;7.084;2024-02-16T04:28:21;3.17;;;1.35;;
37559;SDS011;23398;50.928;7.084;2024-02-16T04:30:47;2.13;;;1.30;;
37559;SDS011;23398;50.928;7.084;2024-02-16T04:33:12;1.70;;;1.23;;
37559;SDS011;23398;50.928;7.084;2024-02-16T04:35:38;2.22;;;1.30;;
37559;SDS011;23398;50.928;7.084;2024-02-16T04:38:03;2.10;;;1.30;;
37559;SDS011;23398;50.928;7.084;2024-02-16T04:40:31;1.60;;;1.17;;
37559;SDS011;23398;50.928;7.084;2024-02-16T04:43:01;3.85;;;1.30;;
37559;SDS011;23398;50.928;7.084;2024-02-16T04:45:27;3.35;;;1.30;;
37559;SDS011;23398;50.928;7.084;2024-02-16T04:47:55;1.40;;;1.20;;
37559;SDS011;23398;50.928;7.084;2024-02-16T04:50:20;3.10;;;1.60;;
37559;SDS011;23398;50.928;7.084;2024-02-16T04:52:46;1.90;;;1.23;;
37559;SDS011;23398;50.928;7.084;2024-02-16T04:55:12;2.03;;;1.40;;
37559;SDS011;23398;50.928;7.084;2024-02-16T04:57:38;2.47;;;1.60;;
37559;SDS011;23398;50.928;7.084;2024-02-16T05:00:03;4.50;;;2.17;;
37559;SDS011;23398;50.928;7.084;2024-02-16T05:02:29;2.75;;;1.60;;
37559;SDS011;23398;50.928;7.084;2024-02-16T05:04:55;2.13;;;1.52;;
37559;SDS011;23398;50.928;7.084;2024-02-16T05:07:20;2.40;;;1.50;;
37559;SDS011;23398;50.928;7.084;2024-02-16T05:09:46;1.63;;;1.30;;
37559;SDS011;23398;50.928;7.084;2024-02-16T05:12:11;2.30;;;1.63;;
37559;SDS011;23398;50.928;7.084;2024-02-16T05:14:37;2.00;;;1.58;;
37559;SDS011;23398;50.928;7.084;2024-02-16T05:17:03;2.00;;;1.50;;
37559;SDS011;23398;50.928;7.084;2024-02-16T05:19:31;2.63;;;1.60;;
37559;SDS011;23398;50.928;7.084;2024-02-16T05:21:57;1.58;;;1.30;;
37559;SDS011;23398;50.928;7.084;2024-02-16T05:24:23;2.60;;;1.50;;
37559;SDS011;23398;50.928;7.084;2024-02-16T05:26:48;2.20;;;1.50;;
37559;SDS011;23398;50.928;7.084;2024-02-16T05:29:16;2.33;;;1.63;;
37559;SDS011;23398;50.928;7.084;2024-02-16T05:31:41;2.50;;;1.70;;
37559;SDS011;23398;50.928;7.084;2024-02-16T05:34:07;2.17;;;1.42;;
37559;SDS011;23398;50.928;7.084;2024-02-16T05:36:33;2.25;;;1.52;;
37559;SDS011;23398;50.928;7.084;2024-02-16T05:39:01;2.60;;;1.60;;
37559;SDS011;23398;50.928;7.084;2024-02-16T05:41:35;2.28;;;1.60;;
37559;SDS011;23398;50.928;7.084;2024-02-16T05:44:02;2.55;;;1.60;;
37559;SDS011;23398;50.928;7.084;2024-02-16T05:46:27;2.28;;;1.60;;
37559;SDS011;23398;50.928;7.084;2024-02-16T05:48:53;2.63;;;1.60;;
37559;SDS011;23398;50.928;7.084;2024-02-16T05:51:19;2.03;;;1.60;;
37559;SDS011;23398;50.928;7.084;2024-02-16T05:53:44;2.33;;;1.40;;
37559;SDS011;23398;50.928;7.084;2024-02-16T05:56:12;2.05;;;1.50;;
37559;SDS011;23398;50.928;7.084;2024-02-16T05:58:37;1.90;;;1.50;;
37559;SDS011;23398;50.928;7.084;2024-02-16T06:01:03;2.35;;;1.60;;
37559;SDS011;23398;50.928;7.084;2024-02-16T06:03:29;2.80;;;1.63;;
37559;SDS011;23398;50.928;7.084;2024-02-16T06:05:54;2.08;;;1.70;;
37559;SDS011;23398;50.928;7.084;2024-02-16T06:08:20;2.33;;;1.60;;
37559;SDS011;23398;50.928;7.084;2024-02-16T06:10:45;2.42;;;1.70;;
37559;SDS011;23398;50.928;7.084;2024-02-16T06:13:18;2.63;;;1.50;;
37559;SDS011;23398;50.928;7.084;2024-02-16T06:15:44;2.80;;;2.00;;
37559;SDS011;23398;50.928;7.084;2024-02-16T06:18:10;2.50;;;1.40;;
37559;SDS011;23398;50.928;7.084;2024-02-16T06:20:35;3.45;;;1.58;;
37559;SDS011;23398;50.928;7.084;2024-02-16T06:23:01;2.95;;;1.73;;
37559;SDS011;23398;50.928;7.084;2024-02-16T06:25:27;2.40;;;1.60;;
37559;SDS011;23398;50.928;7.084;2024-02-16T06:27:53;2.15;;;1.55;;
37559;SDS011;23398;50.928;7.084;2024-02-16T06:30:18;3.20;;;1.60;;
37559;SDS011;23398;50.928;7.084;2024-02-16T06:32:44;1.95;;;1.50;;
37559;SDS011;23398;50.928;7.084;2024-02-16T06:35:09;2.20;;;1.52;;
37559;SDS011;23398;50.928;7.084;2024-02-16T06:37:36;2.40;;;1.60;;
37559;SDS011;23398;50.928;7.084;2024-02-16T06:40:05;1.55;;;1.45;;
37559;SDS011;23398;50.928;7.084;2024-02-16T06:42:34;2.42;;;1.50;;
37559;SDS011;23398;50.928;7.084;2024-02-16T06:45:00;1.90;;;1.45;;
37559;SDS011;23398;50.928;7.084;2024-02-16T06:47:25;2.20;;;1.48;;
37559;SDS011;23398;50.928;7.084;2024-02-16T06:49:51;2.33;;;1.65;;
37559;SDS011;23398;50.928;7.084;2024-02-16T06:52:17;2.67;;;1.45;;
37559;SDS011;23398;50.928;7.084;2024-02-16T06:54:43;3.53;;;1.70;;
37559;SDS011;23398;50.928;7.084;2024-02-16T06:57:09;2.17;;;1.27;;
37559;SDS011;23398;50.928;7.084;2024-02-16T06:59:34;2.65;;;1.58;;
37559;SDS011;23398;50.928;7.084;2024-02-16T07:02:00;3.72;;;1.67;;
37559;SDS011;23398;50.928;7.084;2024-02-16T07:04:26;2.88;;;1.58;;
37559;SDS011;23398;50.928;7.084;2024-02-16T07:06:52;2.30;;;1.60;;
37559;SDS011;23398;50.928;7.084;2024-02-16T07:09:17;2.92;;;1.60;;
37559;SDS011;23398;50.928;7.084;2024-02-16T07:11:43;2.10;;;1.80;;
37559;SDS011;23398;50.928;7.084;2024-02-16T07:14:11;2.10;;;1.80;;
37559;SDS011;23398;50.928;7.084;2024-02-16T07:16:37;1.92;;;1.42;;
37559;SDS011;23398;50.928;7.084;2024-02-16T07:19:03;3.72;;;1.70;;
37559;SDS011;23398;50.928;7.084;2024-02-16T07:21:30;1.67;;;1.33;;
37559;SDS011;23398;50.928;7.084;2024-02-16T07:23:55;2.20;;;1.70;;
37559;SDS011;23398;50.928;7.084;2024-02-16T07:26:21;2.63;;;1.70;;
37559;SDS011;23398;50.928;7.084;2024-02-16T07:28:47;2.05;;;1.40;;
37559;SDS011;23398;50.928;7.084;2024-02-16T07:31:12;3.20;;;1.40;;
37559;SDS011;23398;50.928;7.084;2024-02-16T07:33:39;2.22;;;1.42;;
37559;SDS011;23398;50.928;7.084;2024-02-16T07:36:05;2.35;;;1.40;;
37559;SDS011;23398;50.928;7.084;2024-02-16T07:38:31;2.58;;;1.60;;
37559;SDS011;23398;50.928;7.084;2024-02-16T07:40:57;3.00;;;1.73;;
37559;SDS011;23398;50.928;7.084;2024-02-16T07:43:22;2.13;;;1.50;;
37559;SDS011;23398;50.928;7.084;2024-02-16T07:45:51;2.35;;;1.70;;
37559;SDS011;23398;50.928;7.084;2024-02-16T07:48:20;2.80;;;1.77;;
37559;SDS011;23398;50.928;7.084;2024-02-16T07:50:46;2.65;;;1.73;;
37559;SDS011;23398;50.928;7.084;2024-02-16T07:53:12;2.40;;;1.60;;
37559;SDS011;23398;50.928;7.084;2024-02-16T07:55:38;2.72;;;1.70;;
37559;SDS011;23398;50.928;7.084;2024-02-16T07:58:03;2.17;;;1.70;;
37559;SDS011;23398;50.928;7.084;2024-02-16T08:00:29;3.05;;;1.65;;
37559;SDS011;23398;50.928;7.084;2024-02-16T08:02:54;2.60;;;1.65;;
37559;SDS011;23398;50.928;7.084;2024-02-16T08:05:20;1.98;;;1.60;;
37559;SDS011;23398;50.928;7.084;2024-02-16T08:07:47;3.25;;;1.67;;
37559;SDS011;23398;50.928;7.084;2024-02-16T08:10:13;2.25;;;1.60;;
37559;SDS011;23398;50.928;7.084;2024-02-16T08:12:39;2.28;;;1.60;;
37559;SDS011;23398;50.928;7.084;2024-02-16T08:15:05;1.88;;;1.60;;
37559;SDS011;23398;50.928;7.084;2024-02-16T08:17:32;1.95;;;1.45;;
37559;SDS011;23398;50.928;7.084;2024-02-16T08:19:59;2.40;;;1.42;;
37559;SDS011;23398;50.928;7.084;2024-02-16T08:22:24;3.35;;;1.70;;
37559;SDS011;23398;50.928;7.084;2024-02-16T08:24:50;2.03;;;1.65;;
37559;SDS011;23398;50.928;7.084;2024-02-16T08:27:17;1.85;;;1.63;;
37559;SDS011;23398;50.928;7.084;2024-02-16T08:29:43;3.17;;;1.67;;
37559;SDS011;23398;50.928;7.084;2024-02-16T08:32:09;2.10;;;1.50;;
37559;SDS011;23398;50.928;7.084;2024-02-16T08:34:35;2.22;;;1.60;;
37559;SDS011;23398;50.928;7.084;2024-02-16T08:37:02;3.38;;;1.63;;
37559;SDS011;23398;50.928;7.084;2024-02-16T08:39:29;2.22;;;1.50;;
37559;SDS011;23398;50.928;7.084;2024-02-16T08:41:56;2.60;;;1.83;;
37559;SDS011;23398;50.928;7.084;2024-02-16T08:44:22;2.92;;;1.80;;
37559;SDS011;23398;50.928;7.084;2024-02-16T08:46:47;2.30;;;1.45;;
37559;SDS011;23398;50.928;7.084;2024-02-16T08:49:14;2.42;;;1.50;;
37559;SDS011;23398;50.928;7.084;2024-02-16T08:51:40;2.08;;;1.55;;
37559;SDS011;23398;50.928;7.084;2024-02-16T08:54:06;5.50;;;1.70;;
37559;SDS011;23398;50.928;7.084;2024-02-16T08:56:32;2.33;;;1.50;;
37559;SDS011;23398;50.928;7.084;2024-02-16T08:58:59;2.88;;;1.63;;
37559;SDS011;23398;50.928;7.084;2024-02-16T09:03:56;2.40;;;1.45;;
37559;SDS011;23398;50.928;7.084;2024-02-16T09:06:22;2.28;;;1.70;;
37559;SDS011;23398;50.928;7.084;2024-02-16T09:08:47;2.08;;;1.50;;
37559;SDS011;23398;50.928;7.084;2024-02-16T09:11:13;2.20;;;1.77;;
37559;SDS011;23398;50.928;7.084;2024-02-16T09:13:39;2.17;;;1.63;;
37559;SDS011;23398;50.928;7.084;2024-02-16T09:16:05;1.90;;;1.50;;
37559;SDS011;23398;50.928;7.084;2024-02-16T09:18:32;3.00;;;1.60;;
37559;SDS011;23398;50.928;7.084;2024-02-16T09:20:58;3.00;;;1.90;;
37559;SDS011;23398;50.928;7.084;2024-02-16T09:23:24;2.97;;;1.80;;
37559;SDS011;23398;50.928;7.084;2024-02-16T09:25:50;2.10;;;1.58;;
37559;SDS011;23398;50.928;7.084;2024-02-16T09:28:16;2.88;;;1.80;;
37559;SDS011;23398;50.928;7.084;2024-02-16T09:30:44;3.00;;;1.83;;
37559;SDS011;23398;50.928;7.084;2024-02-16T09:33:09;1.80;;;1.60;;
37559;SDS011;23398;50.928;7.084;2024-02-16T09:35:35;2.63;;;1.60;;
37559;SDS011;23398;50.928;7.084;2024-02-16T09:38:01;3.33;;;1.98;;
37559;SDS011;23398;50.928;7.084;2024-02-16T09:40:26;2.97;;;2.00;;
37559;SDS011;23398;50.928;7.084;2024-02-16T09:42:52;2.08;;;1.50;;
37559;SDS011;23398;50.928;7.084;2024-02-16T09:45:17;3.17;;;1.80;;
37559;SDS011;23398;50.928;7.084;2024-02-16T09:47:44;2.58;;;1.60;;
37559;SDS011;23398;50.928;7.084;2024-02-16T09:50:12;1.85;;;1.70;;
37559;SDS011;23398;50.928;7.084;2024-02-16T09:52:38;2.95;;;1.60;;
37559;SDS011;23398;50.928;7.084;2024-02-16T09:55:06;2.15;;;1.63;;
37559;SDS011;23398;50.928;7.084;2024-02-16T09:57:36;2.83;;;1.73;;
37559;SDS011;23398;50.928;7.084;2024-02-16T10:00:02;2.45;;;1.70;;
37559;SDS011;23398;50.928;7.084;2024-02-16T10:02:44;2.80;;;1.70;;
37559;SDS011;23398;50.928;7.084;2024-02-16T10:05:14;2.35;;;1.75;;
37559;SDS011;23398;50.928;7.084;2024-02-16T10:07:42;2.00;;;1.67;;
37559;SDS011;23398;50.928;7.084;2024-02-16T10:13:01;2.47;;;1.50;;
37559;SDS011;23398;50.928;7.084;2024-02-16T10:15:28;2.47;;;1.80;;
37559;SDS011;23398;50.928;7.084;2024-02-16T10:18:04;2.35;;;1.60;;
37559;SDS011;23398;50.928;7.084;2024-02-16T10:20:31;2.25;;;1.60;;
37559;SDS011;23398;50.928;7.084;2024-02-16T10:25:36;2.35;;;1.83;;
37559;SDS011;23398;50.928;7.084;2024-02-16T10:28:05;2.80;;;1.80;;
37559;SDS011;23398;50.928;7.084;2024-02-16T10:30:34;3.95;;;1.70;;
37559;SDS011;23398;50.928;7.084;2024-02-16T10:33:02;3.00;;;1.52;;
37559;SDS011;23398;50.928;7.084;2024-02-16T10:35:30;1.65;;;1.55;;
37559;SDS011;23398;50.928;7.084;2024-02-16T10:37:56;3.90;;;1.70;;
37559;SDS011;23398;50.928;7.084;2024-02-16T10:40:23;3.00;;;1.90;;
37559;SDS011;23398;50.928;7.084;2024-02-16T10:42:49;2.90;;;1.65;;
37559;SDS011;23398;50.928;7.084;2024-02-16T10:45:16;2.70;;;1.48;;
37559;SDS011;23398;50.928;7.084;2024-02-16T10:47:43;3.13;;;1.85;;
37559;SDS011;23398;50.928;7.084;2024-02-16T10:50:09;2.58;;;1.75;;
37559;SDS011;23398;50.928;7.084;2024-02-16T10:52:36;2.25;;;1.70;;
37559;SDS011;23398;50.928;7.084;2024-02-16T10:55:06;3.65;;;1.95;;
37559;SDS011;23398;50.928;7.084;2024-02-16T10:57:35;3.17;;;1.95;;
37559;SDS011;23398;50.928;7.084;2024-02-16T11:00:01;7.15;;;1.70;;
37559;SDS011;23398;50.928;7.084;2024-02-16T11:02:50;4.70;;;1.85;;
37559;SDS011;23398;50.928;7.084;2024-02-16T11:05:36;3.72;;;1.90;;
37559;SDS011;23398;50.928;7.084;2024-02-16T11:08:14;2.80;;;1.75;;
37559;SDS011;23398;50.928;7.084;2024-02-16T11:10:41;3.25;;;1.80;;
37559;SDS011;23398;50.928;7.084;2024-02-16T11:13:22;3.30;;;2.00;;
37559;SDS011;23398;50.928;7.084;2024-02-16T11:16:01;3.00;;;1.83;;
37559;SDS011;23398;50.928;7.084;2024-02-16T11:18:28;4.35;;;1.92;;
37559;SDS011;23398;50.928;7.084;2024-02-16T11:20:55;3.25;;;1.50;;
37559;SDS011;23398;50.928;7.084;2024-02-16T11:23:27;2.28;;;1.63;;
37559;SDS011;23398;50.928;7.084;2024-02-16T11:25:54;4.03;;;1.83;;
37559;SDS011;23398;50.928;7.084;2024-02-16T11:28:25;4.20;;;2.20;;
37559;SDS011;23398;50.928;7.084;2024-02-16T11:30:52;3.17;;;1.75;;
37559;SDS011;23398;50.928;7.084;2024-02-16T11:33:17;3.13;;;1.90;;
37559;SDS011;23398;50.928;7.084;2024-02-16T11:35:51;3.13;;;1.98;;
37559;SDS011;23398;50.928;7.084;2024-02-16T11:38:21;2.50;;;1.88;;
37559;SDS011;23398;50.928;7.084;2024-02-16T11:40:56;3.53;;;2.10;;
37559;SDS011;23398;50.928;7.084;2024-02-16T11:43:23;2.20;;;1.70;;
37559;SDS011;23398;50.928;7.084;2024-02-16T11:45:50;2.45;;;1.80;;
37559;SDS011;23398;50.928;7.084;2024-02-16T11:48:20;2.13;;;1.70;;
37559;SDS011;23398;50.928;7.084;2024-02-16T11:50:47;3.60;;;1.80;;
37559;SDS011;23398;50.928;7.084;2024-02-16T11:53:19;3.13;;;1.98;;
37559;SDS011;23398;50.928;7.084;2024-02-16T11:55:48;2.50;;;1.48;;
37559;SDS011;23398;50.928;7.084;2024-02-16T11:58:17;4.03;;;1.95;;
37559;SDS011;23398;50.928;7.084;2024-02-16T12:00:47;4.03;;;1.88;;
37559;SDS011;23398;50.928;7.084;2024-02-16T12:03:26;2.83;;;2.15;;
37559;SDS011;23398;50.928;7.084;2024-02-16T12:05:56;3.55;;;2.05;;
37559;SDS011;23398;50.928;7.084;2024-02-16T12:08:23;3.30;;;1.80;;
37559;SDS011;23398;50.928;7.084;2024-02-16T12:10:56;2.35;;;1.75;;
37559;SDS011;23398;50.928;7.084;2024-02-16T12:13:22;4.68;;;2.00;;
37559;SDS011;23398;50.928;7.084;2024-02-16T12:15:48;2.65;;;1.75;;
37559;SDS011;23398;50.928;7.084;2024-02-16T12:18:24;3.08;;;2.00;;
37559;SDS011;23398;50.928;7.084;2024-02-16T12:20:58;3.15;;;2.22;;
37559;SDS011;23398;50.928;7.084;2024-02-16T12:23:24;4.43;;;2.10;;
37559;SDS011;23398;50.928;7.084;2024-02-16T12:25:50;3.20;;;2.08;;
37559;SDS011;23398;50.928;7.084;2024-02-16T12:28:15;2.42;;;1.77;;
37559;SDS011;23398;50.928;7.084;2024-02-16T12:30:41;2.88;;;1.92;;
37559;SDS011;23398;50.928;7.084;2024-02-16T12:33:06;3.40;;;1.83;;
37559;SDS011;23398;50.928;7.084;2024-02-16T12:35:32;2.75;;;2.08;;
37559;SDS011;23398;50.928;7.084;2024-02-16T12:37:59;4.53;;;2.10;;
37559;SDS011;23398;50.928;7.084;2024-02-16T12:40:25;3.47;;;1.90;;
37559;SDS011;23398;50.928;7.084;2024-02-16T12:42:51;2.38;;;1.95;;
37559;SDS011;23398;50.928;7.084;2024-02-16T12:45:17;3.30;;;2.10;;
37559;SDS011;23398;50.928;7.084;2024-02-16T12:47:42;5.63;;;2.10;;
37559;SDS011;23398;50.928;7.084;2024-02-16T12:50:08;2.22;;;1.85;;
37559;SDS011;23398;50.928;7.084;2024-02-16T12:52:34;5.75;;;2.20;;
37559;SDS011;23398;50.928;7.084;2024-02-16T12:55:03;4.35;;;2.10;;
37559;SDS011;23398;50.928;7.084;2024-02-16T12:57:32;2.65;;;1.95;;
37559;SDS011;23398;50.928;7.084;2024-02-16T12:59:57;3.30;;;2.10;;
37559;SDS011;23398;50.928;7.084;2024-02-16T13:02:23;3.47;;;2.10;;
37559;SDS011;23398;50.928;7.084;2024-02-16T13:04:49;3.08;;;2.15;;
37559;SDS011;23398;50.928;7.084;2024-02-16T13:07:15;3.30;;;2.13;;
37559;SDS011;23398;50.928;7.084;2024-02-16T13:09:40;3.10;;;2.33;;
37559;SDS011;23398;50.928;7.084;2024-02-16T13:12:07;3.83;;;2.10;;
37559;SDS011;23398;50.928;7.084;2024-02-16T13:14:32;2.90;;;2.05;;
37559;SDS011;23398;50.928;7.084;2024-02-16T13:16:58;2.92;;;2.22;;
37559;SDS011;23398;50.928;7.084;2024-02-16T13:19:23;3.35;;;2.13;;
37559;SDS011;23398;50.928;7.084;2024-02-16T13:21:49;6.63;;;2.35;;
37559;SDS011;23398;50.928;7.084;2024-02-16T13:24:15;3.28;;;2.20;;
37559;SDS011;23398;50.928;7.084;2024-02-16T13:26:41;4.25;;;2.53;;
37559;SDS011;23398;50.928;7.084;2024-02-16T13:29:06;4.25;;;2.60;;
37559;SDS011;23398;50.928;7.084;2024-02-16T13:31:32;3.50;;;2.28;;
37559;SDS011;23398;50.928;7.084;2024-02-16T13:33:58;2.55;;;2.15;;
37559;SDS011;23398;50.928;7.084;2024-02-16T13:36:24;4.30;;;2.40;;
37559;SDS011;23398;50.928;7.084;2024-02-16T13:38:49;4.20;;;2.22;;
37559;SDS011;23398;50.928;7.084;2024-02-16T13:41:15;4.13;;;2.55;;
37559;SDS011;23398;50.928;7.084;2024-02-16T13:43:41;3.80;;;2.40;;
37559;SDS011;23398;50.928;7.084;2024-02-16T13:46:07;4.63;;;2.97;;
37559;SDS011;23398;50.928;7.084;2024-02-16T13:48:32;3.55;;;2.67;;
37559;SDS011;23398;50.928;7.084;2024-02-16T13:50:59;5.57;;;2.78;;
37559;SDS011;23398;50.928;7.084;2024-02-16T13:53:25;5.22;;;2.90;;
37559;SDS011;23398;50.928;7.084;2024-02-16T13:55:50;5.57;;;2.72;;
37559;SDS011;23398;50.928;7.084;2024-02-16T13:58:16;5.63;;;2.88;;
37559;SDS011;23398;50.928;7.084;2024-02-16T14:00:41;5.22;;;2.60;;
37559;SDS011;23398;50.928;7.084;2024-02-16T14:03:08;3.95;;;2.72;;
37559;SDS011;23398;50.928;7.084;2024-02-16T14:05:37;4.32;;;2.85;;
37559;SDS011;23398;50.928;7.084;2024-02-16T14:08:04;3.90;;;2.53;;
37559;SDS011;23398;50.928;7.084;2024-02-16T14:10:30;4.15;;;2.60;;
37559;SDS011;23398;50.928;7.084;2024-02-16T14:12:59;4.95;;;2.75;;
37559;SDS011;23398;50.928;7.084;2024-02-16T14:15:25;3.45;;;2.38;;
37559;SDS011;23398;50.928;7.084;2024-02-16T14:17:50;4.68;;;2.90;;
37559;SDS011;23398;50.928;7.084;2024-02-16T14:20:16;6.22;;;2.80;;
37559;SDS011;23398;50.928;7.084;2024-02-16T14:22:42;5.65;;;2.90;;
37559;SDS011;23398;50.928;7.084;2024-02-16T14:25:07;4.28;;;2.83;;
37559;SDS011;23398;50.928;7.084;2024-02-16T14:27:36;4.05;;;3.00;;
37559;SDS011;23398;50.928;7.084;2024-02-16T14:30:02;4.85;;;2.47;;
37559;SDS011;23398;50.928;7.084;2024-02-16T14:32:29;4.07;;;2.80;;
37559;SDS011;23398;50.928;7.084;2024-02-16T14:34:54;4.93;;;2.90;;
37559;SDS011;23398;50.928;7.084;2024-02-16T14:37:20;4.03;;;2.78;;
37559;SDS011;23398;50.928;7.084;2024-02-16T14:39:45;4.60;;;2.90;;
37559;SDS011;23398;50.928;7.084;2024-02-16T14:42:11;5.50;;;2.55;;
37559;SDS011;23398;50.928;7.084;2024-02-16T14:44:37;4.70;;;3.00;;
37559;SDS011;23398;50.928;7.084;2024-02-16T14:47:02;5.75;;;2.92;;
37559;SDS011;23398;50.928;7.084;2024-02-16T14:49:28;5.43;;;2.88;;
37559;SDS011;23398;50.928;7.084;2024-02-16T14:51:56;3.42;;;2.60;;